sensor_id;sensor_type;location;lat;lon;timestamp;temperature;humidity
13205;DHT22;6667;52.634;9.226;2024-03-17T00:01:00;4.00;99.90
13205;DHT22;6667;52.634;9.226;2024-03-17T00:03:27;4.00;99.90
13205;DHT22;6667;52.634;9.226;2024-03-17T00:05:56;4.00;99.90
13205;DHT22;6667;52.634;9.226;2024-03-17T00:08:23;3.90;99.90
13205;DHT22;6667;52.634;9.226;2024-03-17T00:10:50;3.90;99.90
13205;DHT22;6667;52.634;9.226;2024-03-17T00:13:17;3.80;99.90
13205;DHT22;6667;52.634;9.226;2024-03-17T00:15:42;3.80;99.90
13205;DHT22;6667;52.634;9.226;2024-03-17T00:18:10;3.80;99.90
13205;DHT22;6667;52.634;9.226;2024-03-17T00:20:36;3.80;99.90
13205;DHT22;6667;52.634;9.226;2024-03-17T00:23:05;3.80;99.90
13205;DHT22;6667;52.634;9.226;2024-03-17T00:25:32;3.70;99.90
13205;DHT22;6667;52.634;9.226;2024-03-17T00:27:59;3.70;99.90
13205;DHT22;6667;52.634;9.226;2024-03-17T00:30:25;3.70;99.90
13205;DHT22;6667;52.634;9.226;2024-03-17T00:32:51;3.70;99.90
13205;DHT22;6667;52.634;9.226;2024-03-17T00:35:17;3.70;99.90
13205;DHT22;6667;52.634;9.226;2024-03-17T00:37:46;3.60;99.90
13205;DHT22;6667;52.634;9.226;2024-03-17T00:40:13;3.60;99.90
13205;DHT22;6667;52.634;9.226;2024-03-17T00:42:41;3.60;99.90
13205;DHT22;6667;52.634;9.226;2024-03-17T00:45:08;3.50;99.90
13205;DHT22;6667;52.634;9.226;2024-03-17T00:47:35;3.50;99.90
13205;DHT22;6667;52.634;9.226;2024-03-17T00:50:01;3.40;99.90
13205;DHT22;6667;52.634;9.226;2024-03-17T00:52:28;3.40;99.90
13205;DHT22;6667;52.634;9.226;2024-03-17T00:54:53;3.30;99.90
13205;DHT22;6667;52.634;9.226;2024-03-17T00:57:21;3.30;99.90
13205;DHT22;6667;52.634;9.226;2024-03-17T00:59:47;3.30;99.90
13205;DHT22;6667;52.634;9.226;2024-03-17T01:02:15;3.20;99.90
13205;DHT22;6667;52.634;9.226;2024-03-17T01:04:42;3.20;99.90
13205;DHT22;6667;52.634;9.226;2024-03-17T01:07:09;3.20;99.90
13205;DHT22;6667;52.634;9.226;2024-03-17T01:09:34;3.20;99.90
13205;DHT22;6667;52.634;9.226;2024-03-17T01:12:01;3.10;99.90
13205;DHT22;6667;52.634;9.226;2024-03-17T01:14:29;3.10;99.90
13205;DHT22;6667;52.634;9.226;2024-03-17T01:16:57;3.10;99.90
13205;DHT22;6667;52.634;9.226;2024-03-17T01:19:23;3.00;99.90
13205;DHT22;6667;52.634;9.226;2024-03-17T01:21:51;3.00;99.90
13205;DHT22;6667;52.634;9.226;2024-03-17T01:24:17;3.00;99.90
13205;DHT22;6667;52.634;9.226;2024-03-17T01:26:43;2.90;99.90
13205;DHT22;6667;52.634;9.226;2024-03-17T01:29:11;2.90;99.90
13205;DHT22;6667;52.634;9.226;2024-03-17T01:31:39;2.90;99.90
13205;DHT22;6667;52.634;9.226;2024-03-17T01:34:04;2.90;99.90
13205;DHT22;6667;52.634;9.226;2024-03-17T01:36:31;2.80;99.90
13205;DHT22;6667;52.634;9.226;2024-03-17T01:38:57;2.80;99.90
13205;DHT22;6667;52.634;9.226;2024-03-17T01:41:24;2.80;99.90
13205;DHT22;6667;52.634;9.226;2024-03-17T01:43:49;2.70;99.90
13205;DHT22;6667;52.634;9.226;2024-03-17T01:46:17;2.70;99.90
13205;DHT22;6667;52.634;9.226;2024-03-17T01:48:44;2.70;99.90
13205;DHT22;6667;52.634;9.226;2024-03-17T01:51:13;2.60;99.90
13205;DHT22;6667;52.634;9.226;2024-03-17T01:53:40;2.60;99.90
13205;DHT22;6667;52.634;9.226;2024-03-17T01:56:10;2.60;99.90
13205;DHT22;6667;52.634;9.226;2024-03-17T01:58:36;2.50;99.90
13205;DHT22;6667;52.634;9.226;2024-03-17T02:01:03;2.50;99.90
13205;DHT22;6667;52.634;9.226;2024-03-17T02:03:29;2.50;99.90
13205;DHT22;6667;52.634;9.226;2024-03-17T02:05:58;2.50;99.90
13205;DHT22;6667;52.634;9.226;2024-03-17T02:08:24;2.40;99.90
13205;DHT22;6667;52.634;9.226;2024-03-17T02:10:53;2.40;99.90
13205;DHT22;6667;52.634;9.226;2024-03-17T02:13:19;2.40;99.90
13205;DHT22;6667;52.634;9.226;2024-03-17T02:15:46;2.40;99.90
13205;DHT22;6667;52.634;9.226;2024-03-17T02:18:12;2.40;99.90
13205;DHT22;6667;52.634;9.226;2024-03-17T02:20:39;2.40;99.90
13205;DHT22;6667;52.634;9.226;2024-03-17T02:23:26;2.40;99.90
13205;DHT22;6667;52.634;9.226;2024-03-17T02:25:53;2.30;99.90
13205;DHT22;6667;52.634;9.226;2024-03-17T02:28:19;2.30;99.90
13205;DHT22;6667;52.634;9.226;2024-03-17T02:30:46;2.30;99.90
13205;DHT22;6667;52.634;9.226;2024-03-17T02:33:12;2.30;99.90
13205;DHT22;6667;52.634;9.226;2024-03-17T02:35:39;2.20;99.90
13205;DHT22;6667;52.634;9.226;2024-03-17T02:38:04;2.20;99.90
13205;DHT22;6667;52.634;9.226;2024-03-17T02:40:34;2.20;99.90
13205;DHT22;6667;52.634;9.226;2024-03-17T02:43:00;2.20;99.90
13205;DHT22;6667;52.634;9.226;2024-03-17T02:45:26;2.10;99.90
13205;DHT22;6667;52.634;9.226;2024-03-17T02:47:53;2.10;99.90
13205;DHT22;6667;52.634;9.226;2024-03-17T02:50:20;2.10;99.90
13205;DHT22;6667;52.634;9.226;2024-03-17T02:52:47;2.10;99.90
13205;DHT22;6667;52.634;9.226;2024-03-17T02:55:14;2.00;99.90
13205;DHT22;6667;52.634;9.226;2024-03-17T02:57:44;2.00;99.90
13205;DHT22;6667;52.634;9.226;2024-03-17T03:00:11;2.00;99.90
13205;DHT22;6667;52.634;9.226;2024-03-17T03:02:38;2.00;99.90
13205;DHT22;6667;52.634;9.226;2024-03-17T03:05:06;1.90;99.90
13205;DHT22;6667;52.634;9.226;2024-03-17T03:07:32;1.90;99.90
13205;DHT22;6667;52.634;9.226;2024-03-17T03:09:59;1.90;99.90
13205;DHT22;6667;52.634;9.226;2024-03-17T03:12:26;1.80;99.90
13205;DHT22;6667;52.634;9.226;2024-03-17T03:14:54;1.80;99.90
13205;DHT22;6667;52.634;9.226;2024-03-17T03:17:20;1.80;99.90
13205;DHT22;6667;52.634;9.226;2024-03-17T03:19:47;1.80;99.90
13205;DHT22;6667;52.634;9.226;2024-03-17T03:22:14;1.70;99.90
13205;DHT22;6667;52.634;9.226;2024-03-17T03:24:41;1.70;99.90
13205;DHT22;6667;52.634;9.226;2024-03-17T03:27:07;1.70;99.90
13205;DHT22;6667;52.634;9.226;2024-03-17T03:29:34;1.70;99.90
13205;DHT22;6667;52.634;9.226;2024-03-17T03:32:02;1.70;99.90
13205;DHT22;6667;52.634;9.226;2024-03-17T03:34:28;1.60;99.90
13205;DHT22;6667;52.634;9.226;2024-03-17T03:36:55;1.60;99.90
13205;DHT22;6667;52.634;9.226;2024-03-17T03:39:22;1.60;99.90
13205;DHT22;6667;52.634;9.226;2024-03-17T03:41:48;1.60;99.90
13205;DHT22;6667;52.634;9.226;2024-03-17T03:44:15;1.50;99.90
13205;DHT22;6667;52.634;9.226;2024-03-17T03:46:42;1.50;99.90
13205;DHT22;6667;52.634;9.226;2024-03-17T03:49:13;1.50;99.90
13205;DHT22;6667;52.634;9.226;2024-03-17T03:51:40;1.50;99.90
13205;DHT22;6667;52.634;9.226;2024-03-17T03:54:06;1.40;99.90
13205;DHT22;6667;52.634;9.226;2024-03-17T03:56:33;1.40;99.90
13205;DHT22;6667;52.634;9.226;2024-03-17T03:58:59;1.40;99.90
13205;DHT22;6667;52.634;9.226;2024-03-17T04:01:26;1.40;99.90
13205;DHT22;6667;52.634;9.226;2024-03-17T04:03:53;1.30;99.90
13205;DHT22;6667;52.634;9.226;2024-03-17T04:06:21;1.30;99.90
13205;DHT22;6667;52.634;9.226;2024-03-17T04:08:48;1.30;99.90
13205;DHT22;6667;52.634;9.226;2024-03-17T04:11:15;1.30;99.90
13205;DHT22;6667;52.634;9.226;2024-03-17T04:13:41;1.20;99.90
13205;DHT22;6667;52.634;9.226;2024-03-17T04:16:08;1.20;99.90
13205;DHT22;6667;52.634;9.226;2024-03-17T04:18:36;1.30;99.90
13205;DHT22;6667;52.634;9.226;2024-03-17T04:21:04;1.20;99.90
13205;DHT22;6667;52.634;9.226;2024-03-17T04:23:33;1.20;99.90
13205;DHT22;6667;52.634;9.226;2024-03-17T04:26:01;1.20;99.90
13205;DHT22;6667;52.634;9.226;2024-03-17T04:28:28;1.10;99.90
13205;DHT22;6667;52.634;9.226;2024-03-17T04:31:02;1.10;99.90
13205;DHT22;6667;52.634;9.226;2024-03-17T04:33:31;1.10;99.90
13205;DHT22;6667;52.634;9.226;2024-03-17T04:35:57;1.10;99.90
13205;DHT22;6667;52.634;9.226;2024-03-17T04:38:24;1.10;99.90
13205;DHT22;6667;52.634;9.226;2024-03-17T04:40:52;1.10;99.90
13205;DHT22;6667;52.634;9.226;2024-03-17T04:43:24;1.10;99.90
13205;DHT22;6667;52.634;9.226;2024-03-17T04:45:59;1.10;99.90
13205;DHT22;6667;52.634;9.226;2024-03-17T04:48:26;1.00;99.90
13205;DHT22;6667;52.634;9.226;2024-03-17T04:50:52;1.10;99.90
13205;DHT22;6667;52.634;9.226;2024-03-17T04:53:19;1.10;99.90
13205;DHT22;6667;52.634;9.226;2024-03-17T04:55:46;1.00;99.90
13205;DHT22;6667;52.634;9.226;2024-03-17T04:58:14;1.00;99.90
13205;DHT22;6667;52.634;9.226;2024-03-17T05:00:40;0.90;99.90
13205;DHT22;6667;52.634;9.226;2024-03-17T05:03:07;1.00;99.90
13205;DHT22;6667;52.634;9.226;2024-03-17T05:05:33;1.00;99.90
13205;DHT22;6667;52.634;9.226;2024-03-17T05:08:00;1.00;99.90
13205;DHT22;6667;52.634;9.226;2024-03-17T05:10:26;0.90;99.90
13205;DHT22;6667;52.634;9.226;2024-03-17T05:12:53;0.90;99.90
13205;DHT22;6667;52.634;9.226;2024-03-17T05:15:22;0.90;99.90
13205;DHT22;6667;52.634;9.226;2024-03-17T05:17:49;0.90;99.90
13205;DHT22;6667;52.634;9.226;2024-03-17T05:20:16;0.90;99.90
13205;DHT22;6667;52.634;9.226;2024-03-17T05:22:43;0.90;99.90
13205;DHT22;6667;52.634;9.226;2024-03-17T05:25:11;0.90;99.90
13205;DHT22;6667;52.634;9.226;2024-03-17T05:27:39;0.80;99.90
13205;DHT22;6667;52.634;9.226;2024-03-17T05:30:06;0.80;99.90
13205;DHT22;6667;52.634;9.226;2024-03-17T05:32:35;0.80;99.90
13205;DHT22;6667;52.634;9.226;2024-03-17T05:35:02;0.80;99.90
13205;DHT22;6667;52.634;9.226;2024-03-17T05:37:29;0.80;99.90
13205;DHT22;6667;52.634;9.226;2024-03-17T05:39:56;0.80;99.90
13205;DHT22;6667;52.634;9.226;2024-03-17T05:42:22;0.80;99.90
13205;DHT22;6667;52.634;9.226;2024-03-17T05:44:49;0.80;99.90
13205;DHT22;6667;52.634;9.226;2024-03-17T05:47:17;0.70;99.90
13205;DHT22;6667;52.634;9.226;2024-03-17T05:49:45;0.70;99.90
13205;DHT22;6667;52.634;9.226;2024-03-17T05:52:12;0.80;99.90
13205;DHT22;6667;52.634;9.226;2024-03-17T05:54:38;0.80;99.90
13205;DHT22;6667;52.634;9.226;2024-03-17T05:57:05;0.80;99.90
13205;DHT22;6667;52.634;9.226;2024-03-17T05:59:32;0.80;99.90
13205;DHT22;6667;52.634;9.226;2024-03-17T06:01:59;0.90;99.90
13205;DHT22;6667;52.634;9.226;2024-03-17T06:04:26;0.90;99.90
13205;DHT22;6667;52.634;9.226;2024-03-17T06:06:54;1.00;99.90
13205;DHT22;6667;52.634;9.226;2024-03-17T06:09:20;1.10;99.90
13205;DHT22;6667;52.634;9.226;2024-03-17T06:11:48;1.20;99.90
13205;DHT22;6667;52.634;9.226;2024-03-17T06:14:16;1.30;99.90
13205;DHT22;6667;52.634;9.226;2024-03-17T06:16:42;1.40;99.90
13205;DHT22;6667;52.634;9.226;2024-03-17T06:19:09;1.50;99.90
13205;DHT22;6667;52.634;9.226;2024-03-17T06:21:37;1.50;99.90
13205;DHT22;6667;52.634;9.226;2024-03-17T06:24:06;1.60;99.90
13205;DHT22;6667;52.634;9.226;2024-03-17T06:26:32;1.70;99.90
13205;DHT22;6667;52.634;9.226;2024-03-17T06:28:59;1.90;99.90
13205;DHT22;6667;52.634;9.226;2024-03-17T06:31:26;2.00;99.90
13205;DHT22;6667;52.634;9.226;2024-03-17T06:33:53;2.20;99.90
13205;DHT22;6667;52.634;9.226;2024-03-17T06:36:19;2.40;99.90
13205;DHT22;6667;52.634;9.226;2024-03-17T06:38:46;2.60;99.90
13205;DHT22;6667;52.634;9.226;2024-03-17T06:41:14;2.80;99.90
13205;DHT22;6667;52.634;9.226;2024-03-17T06:43:41;3.00;99.90
13205;DHT22;6667;52.634;9.226;2024-03-17T06:46:09;3.10;99.90
13205;DHT22;6667;52.634;9.226;2024-03-17T06:48:36;3.10;99.90
13205;DHT22;6667;52.634;9.226;2024-03-17T06:51:03;3.40;99.90
13205;DHT22;6667;52.634;9.226;2024-03-17T06:53:30;3.70;99.90
13205;DHT22;6667;52.634;9.226;2024-03-17T06:55:59;4.00;99.90
13205;DHT22;6667;52.634;9.226;2024-03-17T06:58:27;4.30;99.90
13205;DHT22;6667;52.634;9.226;2024-03-17T07:00:55;4.50;99.90
13205;DHT22;6667;52.634;9.226;2024-03-17T07:03:25;4.70;99.90
13205;DHT22;6667;52.634;9.226;2024-03-17T07:05:53;5.00;99.90
13205;DHT22;6667;52.634;9.226;2024-03-17T07:08:22;5.30;99.90
13205;DHT22;6667;52.634;9.226;2024-03-17T07:10:59;5.70;99.90
13205;DHT22;6667;52.634;9.226;2024-03-17T07:13:30;5.90;99.90
13205;DHT22;6667;52.634;9.226;2024-03-17T07:15:58;6.20;99.90
13205;DHT22;6667;52.634;9.226;2024-03-17T07:18:25;6.30;99.90
13205;DHT22;6667;52.634;9.226;2024-03-17T07:20:53;6.60;99.90
13205;DHT22;6667;52.634;9.226;2024-03-17T07:23:19;6.90;99.90
13205;DHT22;6667;52.634;9.226;2024-03-17T07:25:53;7.20;99.90
13205;DHT22;6667;52.634;9.226;2024-03-17T07:28:20;7.50;99.90
13205;DHT22;6667;52.634;9.226;2024-03-17T07:30:48;7.80;99.90
13205;DHT22;6667;52.634;9.226;2024-03-17T07:33:16;8.10;99.90
13205;DHT22;6667;52.634;9.226;2024-03-17T07:35:49;8.20;99.90
13205;DHT22;6667;52.634;9.226;2024-03-17T07:38:16;8.30;99.90
13205;DHT22;6667;52.634;9.226;2024-03-17T07:40:44;8.70;99.90
13205;DHT22;6667;52.634;9.226;2024-03-17T07:43:11;9.00;99.90
13205;DHT22;6667;52.634;9.226;2024-03-17T07:45:37;9.50;99.90
13205;DHT22;6667;52.634;9.226;2024-03-17T07:48:06;9.80;99.90
13205;DHT22;6667;52.634;9.226;2024-03-17T07:50:33;9.80;99.90
13205;DHT22;6667;52.634;9.226;2024-03-17T07:53:00;9.60;99.90
13205;DHT22;6667;52.634;9.226;2024-03-17T07:55:27;9.80;99.90
13205;DHT22;6667;52.634;9.226;2024-03-17T07:57:56;10.10;99.90
13205;DHT22;6667;52.634;9.226;2024-03-17T08:00:22;10.30;99.90
13205;DHT22;6667;52.634;9.226;2024-03-17T08:02:49;10.20;99.90
13205;DHT22;6667;52.634;9.226;2024-03-17T08:05:17;10.20;99.90
13205;DHT22;6667;52.634;9.226;2024-03-17T08:07:43;10.60;99.90
13205;DHT22;6667;52.634;9.226;2024-03-17T08:10:10;11.40;99.90
13205;DHT22;6667;52.634;9.226;2024-03-17T08:12:37;12.20;99.90
13205;DHT22;6667;52.634;9.226;2024-03-17T08:15:04;12.20;99.90
13205;DHT22;6667;52.634;9.226;2024-03-17T08:17:30;12.00;99.90
13205;DHT22;6667;52.634;9.226;2024-03-17T08:19:57;12.10;99.90
13205;DHT22;6667;52.634;9.226;2024-03-17T08:22:25;11.70;99.90
13205;DHT22;6667;52.634;9.226;2024-03-17T08:24:51;12.30;99.90
13205;DHT22;6667;52.634;9.226;2024-03-17T08:27:18;12.20;99.90
13205;DHT22;6667;52.634;9.226;2024-03-17T08:29:45;12.50;99.90
13205;DHT22;6667;52.634;9.226;2024-03-17T08:32:11;13.20;99.90
13205;DHT22;6667;52.634;9.226;2024-03-17T08:34:40;12.50;99.90
13205;DHT22;6667;52.634;9.226;2024-03-17T08:37:06;12.20;99.90
13205;DHT22;6667;52.634;9.226;2024-03-17T08:39:35;12.40;99.90
13205;DHT22;6667;52.634;9.226;2024-03-17T08:42:02;11.80;99.90
13205;DHT22;6667;52.634;9.226;2024-03-17T08:44:29;12.80;99.90
13205;DHT22;6667;52.634;9.226;2024-03-17T08:46:55;12.80;99.90
13205;DHT22;6667;52.634;9.226;2024-03-17T08:49:23;13.00;99.90
13205;DHT22;6667;52.634;9.226;2024-03-17T08:51:49;14.30;99.90
13205;DHT22;6667;52.634;9.226;2024-03-17T08:54:16;14.50;99.90
13205;DHT22;6667;52.634;9.226;2024-03-17T08:56:44;14.80;99.90
13205;DHT22;6667;52.634;9.226;2024-03-17T08:59:11;14.70;99.90
13205;DHT22;6667;52.634;9.226;2024-03-17T09:01:37;14.10;99.90
13205;DHT22;6667;52.634;9.226;2024-03-17T09:04:04;15.10;99.90
13205;DHT22;6667;52.634;9.226;2024-03-17T09:06:31;14.70;99.90
13205;DHT22;6667;52.634;9.226;2024-03-17T09:08:58;14.50;99.90
13205;DHT22;6667;52.634;9.226;2024-03-17T09:11:24;14.40;99.90
13205;DHT22;6667;52.634;9.226;2024-03-17T09:13:54;14.10;99.90
13205;DHT22;6667;52.634;9.226;2024-03-17T09:16:21;14.30;99.90
13205;DHT22;6667;52.634;9.226;2024-03-17T09:18:48;13.70;99.90
13205;DHT22;6667;52.634;9.226;2024-03-17T09:21:15;12.50;99.90
13205;DHT22;6667;52.634;9.226;2024-03-17T09:23:42;12.90;99.90
13205;DHT22;6667;52.634;9.226;2024-03-17T09:26:10;13.50;99.90
13205;DHT22;6667;52.634;9.226;2024-03-17T09:28:38;14.10;99.90
13205;DHT22;6667;52.634;9.226;2024-03-17T09:31:06;14.30;99.90
13205;DHT22;6667;52.634;9.226;2024-03-17T09:33:34;13.80;99.90
13205;DHT22;6667;52.634;9.226;2024-03-17T09:36:02;13.20;99.90
13205;DHT22;6667;52.634;9.226;2024-03-17T09:38:29;13.20;99.90
13205;DHT22;6667;52.634;9.226;2024-03-17T09:40:56;12.40;99.90
13205;DHT22;6667;52.634;9.226;2024-03-17T09:43:25;13.70;99.90
13205;DHT22;6667;52.634;9.226;2024-03-17T09:45:53;14.80;99.90
13205;DHT22;6667;52.634;9.226;2024-03-17T09:48:24;15.50;99.90
13205;DHT22;6667;52.634;9.226;2024-03-17T09:50:53;16.30;99.90
13205;DHT22;6667;52.634;9.226;2024-03-17T09:53:24;15.00;99.90
13205;DHT22;6667;52.634;9.226;2024-03-17T09:55:52;13.60;99.90
13205;DHT22;6667;52.634;9.226;2024-03-17T09:58:19;13.60;99.90
13205;DHT22;6667;52.634;9.226;2024-03-17T10:00:46;15.30;99.90
13205;DHT22;6667;52.634;9.226;2024-03-17T10:03:45;15.30;99.90
13205;DHT22;6667;52.634;9.226;2024-03-17T10:06:15;14.50;99.90
13205;DHT22;6667;52.634;9.226;2024-03-17T10:08:43;14.10;99.90
13205;DHT22;6667;52.634;9.226;2024-03-17T10:11:10;13.30;99.90
13205;DHT22;6667;52.634;9.226;2024-03-17T10:13:38;13.20;99.90
13205;DHT22;6667;52.634;9.226;2024-03-17T10:16:05;12.70;99.90
13205;DHT22;6667;52.634;9.226;2024-03-17T10:18:31;12.70;99.90
13205;DHT22;6667;52.634;9.226;2024-03-17T10:21:00;13.30;99.90
13205;DHT22;6667;52.634;9.226;2024-03-17T10:23:27;13.40;99.90
13205;DHT22;6667;52.634;9.226;2024-03-17T10:25:54;13.10;99.90
13205;DHT22;6667;52.634;9.226;2024-03-17T10:28:21;12.90;99.90
13205;DHT22;6667;52.634;9.226;2024-03-17T10:30:57;13.30;99.90
13205;DHT22;6667;52.634;9.226;2024-03-17T10:33:25;13.90;99.90
13205;DHT22;6667;52.634;9.226;2024-03-17T10:35:59;14.40;99.90
13205;DHT22;6667;52.634;9.226;2024-03-17T10:38:27;14.90;99.90
13205;DHT22;6667;52.634;9.226;2024-03-17T10:40:53;15.20;99.90
13205;DHT22;6667;52.634;9.226;2024-03-17T10:43:20;15.60;99.90
13205;DHT22;6667;52.634;9.226;2024-03-17T10:45:51;15.60;99.90
13205;DHT22;6667;52.634;9.226;2024-03-17T10:48:20;15.60;99.90
13205;DHT22;6667;52.634;9.226;2024-03-17T10:50:48;17.00;99.90
13205;DHT22;6667;52.634;9.226;2024-03-17T10:53:20;17.50;99.90
13205;DHT22;6667;52.634;9.226;2024-03-17T10:55:57;16.80;99.90
13205;DHT22;6667;52.634;9.226;2024-03-17T10:58:33;16.90;99.90
13205;DHT22;6667;52.634;9.226;2024-03-17T11:01:01;18.00;99.90
13205;DHT22;6667;52.634;9.226;2024-03-17T11:03:31;18.60;99.90
13205;DHT22;6667;52.634;9.226;2024-03-17T11:05:59;19.20;99.90
13205;DHT22;6667;52.634;9.226;2024-03-17T11:08:28;18.10;99.90
13205;DHT22;6667;52.634;9.226;2024-03-17T11:10:54;16.60;99.90
13205;DHT22;6667;52.634;9.226;2024-03-17T11:13:25;16.20;99.90
13205;DHT22;6667;52.634;9.226;2024-03-17T11:15:52;15.60;99.90
13205;DHT22;6667;52.634;9.226;2024-03-17T11:18:35;16.20;99.90
13205;DHT22;6667;52.634;9.226;2024-03-17T11:21:02;16.20;99.90
13205;DHT22;6667;52.634;9.226;2024-03-17T11:23:35;15.70;99.90
13205;DHT22;6667;52.634;9.226;2024-03-17T11:26:04;16.00;99.90
13205;DHT22;6667;52.634;9.226;2024-03-17T11:28:48;15.60;99.90
13205;DHT22;6667;52.634;9.226;2024-03-17T11:31:45;16.50;99.90
13205;DHT22;6667;52.634;9.226;2024-03-17T11:34:34;17.30;99.90
13205;DHT22;6667;52.634;9.226;2024-03-17T11:37:00;15.90;99.90
13205;DHT22;6667;52.634;9.226;2024-03-17T11:40:21;15.30;99.90
13205;DHT22;6667;52.634;9.226;2024-03-17T11:43:00;15.80;99.90
13205;DHT22;6667;52.634;9.226;2024-03-17T11:45:27;15.70;99.90
13205;DHT22;6667;52.634;9.226;2024-03-17T11:47:53;15.50;99.90
13205;DHT22;6667;52.634;9.226;2024-03-17T11:50:20;15.80;99.90
13205;DHT22;6667;52.634;9.226;2024-03-17T11:52:46;15.90;99.90
13205;DHT22;6667;52.634;9.226;2024-03-17T11:55:18;15.60;99.90
13205;DHT22;6667;52.634;9.226;2024-03-17T11:57:44;16.00;99.90
13205;DHT22;6667;52.634;9.226;2024-03-17T12:00:22;15.50;99.90
13205;DHT22;6667;52.634;9.226;2024-03-17T12:02:49;15.40;99.90
13205;DHT22;6667;52.634;9.226;2024-03-17T12:05:16;15.30;99.90
13205;DHT22;6667;52.634;9.226;2024-03-17T12:07:42;15.30;99.90
13205;DHT22;6667;52.634;9.226;2024-03-17T12:10:10;15.80;99.90
13205;DHT22;6667;52.634;9.226;2024-03-17T12:12:37;15.60;99.90
13205;DHT22;6667;52.634;9.226;2024-03-17T12:15:16;16.00;99.90
13205;DHT22;6667;52.634;9.226;2024-03-17T12:17:42;15.80;99.90
13205;DHT22;6667;52.634;9.226;2024-03-17T12:20:17;15.90;99.90
13205;DHT22;6667;52.634;9.226;2024-03-17T12:22:43;15.40;99.90
13205;DHT22;6667;52.634;9.226;2024-03-17T12:25:16;15.60;99.90
13205;DHT22;6667;52.634;9.226;2024-03-17T12:27:45;15.30;99.90
13205;DHT22;6667;52.634;9.226;2024-03-17T12:30:12;15.70;99.90
13205;DHT22;6667;52.634;9.226;2024-03-17T12:32:40;16.50;99.90
13205;DHT22;6667;52.634;9.226;2024-03-17T12:35:13;15.70;99.90
13205;DHT22;6667;52.634;9.226;2024-03-17T12:37:40;15.40;99.90
13205;DHT22;6667;52.634;9.226;2024-03-17T12:40:18;14.90;99.90
13205;DHT22;6667;52.634;9.226;2024-03-17T12:42:49;15.20;99.90
13205;DHT22;6667;52.634;9.226;2024-03-17T12:45:20;16.10;99.90
13205;DHT22;6667;52.634;9.226;2024-03-17T12:47:47;15.90;99.90
13205;DHT22;6667;52.634;9.226;2024-03-17T12:50:14;16.00;99.90
13205;DHT22;6667;52.634;9.226;2024-03-17T12:52:40;16.40;99.90
13205;DHT22;6667;52.634;9.226;2024-03-17T12:55:08;16.10;99.90
13205;DHT22;6667;52.634;9.226;2024-03-17T12:57:51;15.70;99.90
13205;DHT22;6667;52.634;9.226;2024-03-17T13:00:44;15.90;99.90
13205;DHT22;6667;52.634;9.226;2024-03-17T13:03:23;14.90;99.90
13205;DHT22;6667;52.634;9.226;2024-03-17T13:05:50;15.60;99.90
13205;DHT22;6667;52.634;9.226;2024-03-17T13:08:18;15.70;99.90
13205;DHT22;6667;52.634;9.226;2024-03-17T13:10:44;15.40;99.90
13205;DHT22;6667;52.634;9.226;2024-03-17T13:13:13;15.40;99.90
13205;DHT22;6667;52.634;9.226;2024-03-17T13:15:41;15.40;99.90
13205;DHT22;6667;52.634;9.226;2024-03-17T13:18:08;16.00;99.90
13205;DHT22;6667;52.634;9.226;2024-03-17T13:20:35;16.70;99.90
13205;DHT22;6667;52.634;9.226;2024-03-17T13:23:01;16.80;99.90
13205;DHT22;6667;52.634;9.226;2024-03-17T13:25:29;16.60;99.90
13205;DHT22;6667;52.634;9.226;2024-03-17T13:28:00;15.90;99.90
13205;DHT22;6667;52.634;9.226;2024-03-17T13:30:30;16.70;99.90
13205;DHT22;6667;52.634;9.226;2024-03-17T13:32:59;17.70;99.90
13205;DHT22;6667;52.634;9.226;2024-03-17T13:35:28;17.80;99.90
13205;DHT22;6667;52.634;9.226;2024-03-17T13:37:56;16.80;99.90
13205;DHT22;6667;52.634;9.226;2024-03-17T13:40:25;16.60;99.90
13205;DHT22;6667;52.634;9.226;2024-03-17T13:42:53;16.00;99.90
13205;DHT22;6667;52.634;9.226;2024-03-17T13:45:21;16.70;99.90
13205;DHT22;6667;52.634;9.226;2024-03-17T13:47:56;16.60;99.90
13205;DHT22;6667;52.634;9.226;2024-03-17T13:50:24;16.80;99.90
13205;DHT22;6667;52.634;9.226;2024-03-17T13:52:51;15.80;99.90
13205;DHT22;6667;52.634;9.226;2024-03-17T13:55:18;15.20;99.90
13205;DHT22;6667;52.634;9.226;2024-03-17T13:57:46;15.20;99.90
13205;DHT22;6667;52.634;9.226;2024-03-17T14:00:15;15.60;99.90
13205;DHT22;6667;52.634;9.226;2024-03-17T14:02:42;15.00;99.90
13205;DHT22;6667;52.634;9.226;2024-03-17T14:05:12;15.60;99.90
13205;DHT22;6667;52.634;9.226;2024-03-17T14:07:40;15.40;99.90
13205;DHT22;6667;52.634;9.226;2024-03-17T14:10:09;15.20;99.90
13205;DHT22;6667;52.634;9.226;2024-03-17T14:12:37;15.70;99.90
13205;DHT22;6667;52.634;9.226;2024-03-17T14:15:06;16.00;99.90
13205;DHT22;6667;52.634;9.226;2024-03-17T14:17:32;15.90;99.90
13205;DHT22;6667;52.634;9.226;2024-03-17T14:19:59;15.40;99.90
13205;DHT22;6667;52.634;9.226;2024-03-17T14:22:27;15.60;99.90
13205;DHT22;6667;52.634;9.226;2024-03-17T14:24:53;15.90;99.90
13205;DHT22;6667;52.634;9.226;2024-03-17T14:27:20;15.50;99.90
13205;DHT22;6667;52.634;9.226;2024-03-17T14:29:47;15.20;99.90
13205;DHT22;6667;52.634;9.226;2024-03-17T14:32:14;14.70;99.90
13205;DHT22;6667;52.634;9.226;2024-03-17T14:34:41;15.10;99.90
13205;DHT22;6667;52.634;9.226;2024-03-17T14:37:07;15.60;99.90
13205;DHT22;6667;52.634;9.226;2024-03-17T14:39:35;14.90;99.90
13205;DHT22;6667;52.634;9.226;2024-03-17T14:42:03;13.80;99.90
13205;DHT22;6667;52.634;9.226;2024-03-17T14:44:31;13.50;99.90
13205;DHT22;6667;52.634;9.226;2024-03-17T14:46:58;13.80;99.90
13205;DHT22;6667;52.634;9.226;2024-03-17T14:49:24;13.50;99.90
13205;DHT22;6667;52.634;9.226;2024-03-17T14:51:51;13.60;99.90
13205;DHT22;6667;52.634;9.226;2024-03-17T14:54:16;13.40;99.90
13205;DHT22;6667;52.634;9.226;2024-03-17T14:56:44;13.10;99.90
13205;DHT22;6667;52.634;9.226;2024-03-17T14:59:11;13.40;99.90
13205;DHT22;6667;52.634;9.226;2024-03-17T15:01:38;13.00;99.90
13205;DHT22;6667;52.634;9.226;2024-03-17T15:04:05;13.10;99.90
13205;DHT22;6667;52.634;9.226;2024-03-17T15:06:32;13.10;99.90
13205;DHT22;6667;52.634;9.226;2024-03-17T15:09:01;13.10;99.90
13205;DHT22;6667;52.634;9.226;2024-03-17T15:11:28;12.70;99.90
13205;DHT22;6667;52.634;9.226;2024-03-17T15:13:56;12.80;99.90
13205;DHT22;6667;52.634;9.226;2024-03-17T15:16:23;12.60;99.90
13205;DHT22;6667;52.634;9.226;2024-03-17T15:18:49;12.30;99.90
13205;DHT22;6667;52.634;9.226;2024-03-17T15:21:16;12.40;99.90
13205;DHT22;6667;52.634;9.226;2024-03-17T15:23:43;12.70;99.90
13205;DHT22;6667;52.634;9.226;2024-03-17T15:26:11;12.70;99.90
13205;DHT22;6667;52.634;9.226;2024-03-17T15:28:39;12.60;99.90
13205;DHT22;6667;52.634;9.226;2024-03-17T15:31:08;12.40;99.90
13205;DHT22;6667;52.634;9.226;2024-03-17T15:33:36;12.10;99.90
13205;DHT22;6667;52.634;9.226;2024-03-17T15:36:06;11.90;99.90
13205;DHT22;6667;52.634;9.226;2024-03-17T15:38:34;12.00;99.90
13205;DHT22;6667;52.634;9.226;2024-03-17T15:41:02;11.90;99.90
13205;DHT22;6667;52.634;9.226;2024-03-17T15:43:31;11.90;99.90
13205;DHT22;6667;52.634;9.226;2024-03-17T15:45:59;11.60;99.90
13205;DHT22;6667;52.634;9.226;2024-03-17T15:48:27;11.60;99.90
13205;DHT22;6667;52.634;9.226;2024-03-17T15:50:55;11.70;99.90
13205;DHT22;6667;52.634;9.226;2024-03-17T15:53:22;11.90;99.90
13205;DHT22;6667;52.634;9.226;2024-03-17T15:55:55;11.70;99.90
13205;DHT22;6667;52.634;9.226;2024-03-17T15:58:22;11.80;99.90
13205;DHT22;6667;52.634;9.226;2024-03-17T16:00:49;11.80;99.90